Time,TemperatureF,DewpointF,PressureIn,WindDirection,WindDirectionDegrees,WindSpeedMPH,WindSpeedGustMPH,Humidity,HourlyPrecipIn,Conditions,Clouds,dailyrainin,SoftwareType,DateUTC
2013-09-21 00:02:00,68.4,68.0,29.03,South,180,2.0,8.0,99,0.00,,,0.07,meteohub,2013-09-21 10:02:00,
2013-09-21 00:07:00,68.0,67.6,29.02,South,180,0.0,8.0,99,0.00,,,0.00,meteohub,2013-09-21 10:07:00,
2013-09-21 00:12:00,67.8,67.5,29.01,South,180,0.0,4.0,99,0.00,,,0.00,meteohub,2013-09-21 10:12:00,
2013-09-21 00:17:00,67.6,67.3,29.02,South,180,0.0,2.0,99,0.00,,,0.00,meteohub,2013-09-21 10:17:00,
2013-09-21 00:22:00,67.5,67.1,29.01,South,180,0.0,1.0,99,0.00,,,0.00,meteohub,2013-09-21 10:22:00,
2013-09-21 00:27:00,67.5,67.1,29.01,South,180,0.0,0.0,99,0.00,,,0.00,meteohub,2013-09-21 10:27:00,
2013-09-21 00:32:00,67.5,67.1,29.01,South,180,0.0,0.0,99,0.00,,,0.00,meteohub,2013-09-21 10:32:00,
2013-09-21 00:37:00,67.5,67.1,29.01,South,180,0.0,0.0,99,0.00,,,0.00,meteohub,2013-09-21 10:37:00,
2013-09-21 00:42:00,67.5,67.1,29.01,South,180,0.0,0.0,99,0.00,,,0.00,meteohub,2013-09-21 10:42:00,
2013-09-21 00:47:00,67.5,67.1,29.01,South,180,1.0,0.0,99,0.00,,,0.00,meteohub,2013-09-21 10:47:00,
2013-09-21 00:52:00,67.5,67.1,29.01,South,180,0.0,1.0,99,0.00,,,0.00,meteohub,2013-09-21 10:52:00,
2013-09-21 00:57:00,67.5,67.1,29.01,South,180,0.0,1.0,99,0.00,,,0.00,meteohub,2013-09-21 10:57:00,
2013-09-21 01:02:00,67.5,67.1,29.01,South,180,0.0,1.0,99,0.00,,,0.00,meteohub,2013-09-21 11:02:00,
2013-09-21 01:07:00,67.5,67.1,29.01,South,180,0.0,2.0,99,0.00,,,0.00,meteohub,2013-09-21 11:07:00,
2013-09-21 01:12:00,67.5,67.1,29.01,South,180,0.0,2.0,99,0.00,,,0.00,meteohub,2013-09-21 11:12:00,
2013-09-21 01:17:00,67.3,66.9,29.00,South,180,0.0,2.0,99,0.00,,,0.00,meteohub,2013-09-21 11:17:00,
2013-09-21 01:22:00,67.3,66.9,29.01,South,180,1.0,1.0,99,0.00,,,0.00,meteohub,2013-09-21 11:22:00,
2013-09-21 01:27:00,67.3,66.9,29.00,South,180,0.0,2.0,99,0.00,,,0.00,meteohub,2013-09-21 11:27:00,
2013-09-21 01:32:00,67.3,66.9,29.00,South,180,0.0,2.0,99,0.00,,,0.00,meteohub,2013-09-21 11:32:00,
2013-09-21 01:37:00,67.3,66.9,28.99,South,180,0.0,2.0,99,0.00,,,0.00,meteohub,2013-09-21 11:37:00,
2013-09-21 01:42:00,67.3,66.9,28.99,South,180,0.0,2.0,99,0.00,,,0.00,meteohub,2013-09-21 11:42:00,
2013-09-21 01:47:00,67.5,67.1,28.99,South,180,0.0,2.0,99,0.00,,,0.00,meteohub,2013-09-21 11:47:00,
2013-09-21 01:52:00,67.5,67.1,28.99,South,180,0.0,2.0,99,0.00,,,0.00,meteohub,2013-09-21 11:52:00,
2013-09-21 01:57:00,67.5,67.1,28.98,South,180,1.0,2.0,99,0.00,,,0.00,meteohub,2013-09-21 11:57:00,
2013-09-21 02:02:00,67.6,67.3,28.98,South,180,2.0,2.0,99,0.00,,,0.00,meteohub,2013-09-21 12:02:00,
2013-09-21 02:07:00,67.8,67.5,28.99,South,180,1.0,2.0,99,0.00,,,0.00,meteohub,2013-09-21 12:07:00,
2013-09-21 02:12:00,67.8,67.5,28.99,South,180,2.0,2.0,99,0.00,,,0.00,meteohub,2013-09-21 12:12:00,
2013-09-21 02:17:00,68.0,67.6,28.98,South,180,2.0,2.0,99,0.00,,,0.00,meteohub,2013-09-21 12:17:00,
2013-09-21 02:22:00,68.2,67.8,28.98,South,180,1.0,2.0,99,0.00,,,0.00,meteohub,2013-09-21 12:22:00,
2013-09-21 02:27:00,68.2,67.8,28.98,South,180,1.0,2.0,99,0.00,,,0.00,meteohub,2013-09-21 12:27:00,
2013-09-21 02:32:00,68.4,68.0,28.98,South,180,2.0,2.0,99,0.00,,,0.00,meteohub,2013-09-21 12:32:00,
2013-09-21 02:37:00,68.5,68.2,28.98,South,180,2.0,2.0,99,0.00,,,0.00,meteohub,2013-09-21 12:37:00,
2013-09-21 02:42:00,68.5,68.2,28.98,South,180,2.0,4.0,99,0.00,,,0.00,meteohub,2013-09-21 12:42:00,
2013-09-21 02:47:00,68.9,68.5,28.98,South,180,0.0,4.0,99,0.00,,,0.00,meteohub,2013-09-21 12:47:00,
2013-09-21 02:52:00,69.1,68.7,28.98,South,180,2.0,4.0,99,0.00,,,0.00,meteohub,2013-09-21 12:52:00,
2013-09-21 02:57:00,69.1,68.7,28.98,South,180,2.0,4.0,99,0.00,,,0.00,meteohub,2013-09-21 12:57:00,
2013-09-21 03:02:00,69.3,68.9,28.98,South,180,0.0,4.0,99,0.00,,,0.00,meteohub,2013-09-21 13:02:00,
2013-09-21 03:07:00,69.3,68.9,28.97,South,180,0.0,2.0,99,0.00,,,0.00,meteohub,2013-09-21 13:07:00,
2013-09-21 03:12:00,69.3,68.9,28.97,South,180,0.0,2.0,99,0.00,,,0.00,meteohub,2013-09-21 13:12:00,
2013-09-21 03:17:00,69.3,68.9,28.97,South,180,0.0,2.0,99,0.00,,,0.00,meteohub,2013-09-21 13:17:00,
2013-09-21 03:22:00,69.3,68.7,28.97,South,180,0.0,2.0,98,0.00,,,0.00,meteohub,2013-09-21 13:22:00,
2013-09-21 03:27:00,69.3,68.9,28.97,South,180,1.0,2.0,99,0.00,,,0.00,meteohub,2013-09-21 13:27:00,
2013-09-21 03:32:00,69.1,68.7,28.97,South,180,0.0,2.0,99,0.00,,,0.00,meteohub,2013-09-21 13:32:00,
2013-09-21 03:37:00,68.9,68.5,28.97,South,180,2.0,2.0,99,0.00,,,0.00,meteohub,2013-09-21 13:37:00,
2013-09-21 03:42:00,68.7,68.4,28.98,South,180,2.0,2.0,99,0.00,,,0.00,meteohub,2013-09-21 13:42:00,
2013-09-21 03:47:00,68.7,68.4,28.97,South,180,3.0,3.0,99,0.00,,,0.00,meteohub,2013-09-21 13:47:00,
2013-09-21 03:52:00,68.5,68.2,28.97,South,180,0.0,4.0,99,0.00,,,0.00,meteohub,2013-09-21 13:52:00,
2013-09-21 03:57:00,68.5,68.2,28.97,South,180,0.0,4.0,99,0.00,,,0.00,meteohub,2013-09-21 13:57:00,
2013-09-21 04:02:00,68.4,68.0,28.97,South,180,2.0,4.0,99,0.00,,,0.00,meteohub,2013-09-21 14:02:00,
2013-09-21 04:07:00,68.4,68.0,28.97,South,180,0.0,2.0,99,0.00,,,0.00,meteohub,2013-09-21 14:07:00,
2013-09-21 04:12:00,68.4,68.0,28.97,South,180,0.0,2.0,99,0.00,,,0.00,meteohub,2013-09-21 14:12:00,
2013-09-21 04:17:00,68.2,67.8,28.96,South,180,0.0,2.0,99,0.00,,,0.00,meteohub,2013-09-21 14:17:00,
2013-09-21 04:22:00,68.2,67.8,28.96,South,180,2.0,2.0,99,0.00,,,0.00,meteohub,2013-09-21 14:22:00,
2013-09-21 04:27:00,68.4,68.0,28.96,South,180,1.0,2.0,99,0.00,,,0.00,meteohub,2013-09-21 14:27:00,
2013-09-21 04:32:00,68.4,68.0,28.96,South,180,0.0,2.0,99,0.00,,,0.00,meteohub,2013-09-21 14:32:00,
2013-09-21 04:37:00,68.4,68.0,28.96,South,180,0.0,2.0,99,0.00,,,0.00,meteohub,2013-09-21 14:37:00,
2013-09-21 04:42:00,68.5,68.2,28.96,South,180,1.0,2.0,99,0.00,,,0.00,meteohub,2013-09-21 14:42:00,
2013-09-21 04:47:00,68.5,68.2,28.96,South,180,1.0,4.0,99,0.00,,,0.00,meteohub,2013-09-21 14:47:00,
2013-09-21 04:52:00,68.5,68.2,28.97,South,180,0.0,4.0,99,0.00,,,0.00,meteohub,2013-09-21 14:52:00,
2013-09-21 04:57:00,68.5,68.2,28.97,South,180,1.0,3.0,99,0.00,,,0.00,meteohub,2013-09-21 14:57:00,
2013-09-21 05:02:00,68.5,68.2,28.97,South,180,0.0,3.0,99,0.00,,,0.00,meteohub,2013-09-21 15:02:00,
2013-09-21 05:07:00,68.7,68.4,28.97,South,180,2.0,2.0,99,0.00,,,0.00,meteohub,2013-09-21 15:07:00,
2013-09-21 05:12:00,68.7,68.4,28.97,South,180,0.0,2.0,99,0.00,,,0.00,meteohub,2013-09-21 15:12:00,
2013-09-21 05:17:00,68.7,68.4,28.98,South,180,0.0,2.0,99,0.00,,,0.00,meteohub,2013-09-21 15:17:00,
2013-09-21 05:22:00,68.7,68.4,28.98,South,180,0.0,2.0,99,0.00,,,0.00,meteohub,2013-09-21 15:22:00,
2013-09-21 05:27:00,68.5,68.2,28.97,South,180,2.0,2.0,99,0.00,,,0.00,meteohub,2013-09-21 15:27:00,
2013-09-21 05:32:00,68.5,68.2,28.98,South,180,0.0,2.0,99,0.00,,,0.00,meteohub,2013-09-21 15:32:00,
2013-09-21 05:37:00,68.7,68.4,28.98,South,180,2.0,2.0,99,0.00,,,0.00,meteohub,2013-09-21 15:37:00,
2013-09-21 05:42:00,68.7,68.4,28.98,South,180,0.0,2.0,99,0.00,,,0.00,meteohub,2013-09-21 15:42:00,
2013-09-21 05:47:00,68.7,68.4,28.98,South,180,0.0,2.0,99,0.00,,,0.00,meteohub,2013-09-21 15:47:00,
2013-09-21 05:52:00,68.7,68.4,28.98,South,180,0.0,2.0,99,0.00,,,0.00,meteohub,2013-09-21 15:52:00,
2013-09-21 05:57:00,68.7,68.4,28.98,South,180,0.0,2.0,99,0.00,,,0.00,meteohub,2013-09-21 15:57:00,
2013-09-21 06:02:00,68.7,68.4,28.99,South,180,0.0,2.0,99,0.00,,,0.00,meteohub,2013-09-21 16:02:00,
2013-09-21 06:07:00,68.7,68.4,28.99,South,180,0.0,0.0,99,0.00,,,0.00,meteohub,2013-09-21 16:07:00,
2013-09-21 06:12:00,68.9,68.5,28.99,South,180,0.0,0.0,99,0.00,,,0.00,meteohub,2013-09-21 16:12:00,
2013-09-21 06:17:00,68.9,68.5,28.99,South,180,0.0,0.0,99,0.00,,,0.00,meteohub,2013-09-21 16:17:00,
2013-09-21 06:22:00,68.7,68.4,28.99,South,180,0.0,0.0,99,0.00,,,0.00,meteohub,2013-09-21 16:22:00,
2013-09-21 06:27:00,68.7,68.4,28.99,South,180,0.0,0.0,99,0.00,,,0.00,meteohub,2013-09-21 16:27:00,
2013-09-21 06:32:00,68.5,68.2,28.99,South,180,0.0,0.0,99,0.00,,,0.00,meteohub,2013-09-21 16:32:00,
2013-09-21 06:37:00,68.5,68.2,28.99,South,180,0.0,0.0,99,0.00,,,0.00,meteohub,2013-09-21 16:37:00,
2013-09-21 06:42:00,68.5,68.2,28.99,South,180,0.0,0.0,99,0.00,,,0.00,meteohub,2013-09-21 16:42:00,
2013-09-21 06:47:00,68.5,68.2,29.00,South,180,0.0,0.0,99,0.00,,,0.00,meteohub,2013-09-21 16:47:00,
2013-09-21 06:52:00,68.5,68.2,28.99,South,180,0.0,0.0,99,0.00,,,0.00,meteohub,2013-09-21 16:52:00,
2013-09-21 06:57:00,68.5,68.2,28.99,South,180,0.0,0.0,99,0.00,,,0.00,meteohub,2013-09-21 16:57:00,
2013-09-21 07:02:00,68.5,68.2,29.00,South,180,0.0,0.0,99,0.00,,,0.00,meteohub,2013-09-21 17:02:00,
2013-09-21 07:07:00,68.5,68.2,29.00,South,180,0.0,0.0,99,0.00,,,0.00,meteohub,2013-09-21 17:07:00,
2013-09-21 07:12:00,68.5,68.2,29.00,South,180,0.0,0.0,99,0.00,,,0.00,meteohub,2013-09-21 17:12:00,
2013-09-21 07:17:00,68.5,68.2,29.00,South,180,0.0,0.0,99,0.00,,,0.00,meteohub,2013-09-21 17:17:00,
2013-09-21 07:22:00,68.5,68.2,29.00,South,180,0.0,0.0,99,0.00,,,0.00,meteohub,2013-09-21 17:22:00,
2013-09-21 07:27:00,68.7,68.4,29.01,South,180,0.0,0.0,99,0.00,,,0.00,meteohub,2013-09-21 17:27:00,
2013-09-21 07:32:00,68.9,68.5,29.01,South,180,0.0,0.0,99,0.00,,,0.00,meteohub,2013-09-21 17:32:00,
2013-09-21 07:37:00,69.4,69.1,29.01,South,180,0.0,0.0,99,0.00,,,0.00,meteohub,2013-09-21 17:37:00,
2013-09-21 07:42:00,70.0,69.6,29.00,South,180,0.0,0.0,99,0.00,,,0.00,meteohub,2013-09-21 17:42:00,
2013-09-21 07:47:00,70.5,70.2,29.00,South,180,0.0,0.0,99,0.00,,,0.00,meteohub,2013-09-21 17:47:00,
2013-09-21 07:52:00,72.3,72.0,29.00,South,180,0.0,0.0,99,0.01,,,0.01,meteohub,2013-09-21 17:52:00,
2013-09-21 07:57:00,74.7,74.3,29.00,South,180,0.0,1.0,99,0.01,,,0.01,meteohub,2013-09-21 17:57:00,
2013-09-21 08:02:00,75.7,74.5,29.01,South,180,0.0,1.0,96,0.01,,,0.01,meteohub,2013-09-21 18:02:00,
2013-09-21 08:07:00,76.8,73.9,29.01,South,180,0.0,1.0,91,0.01,,,0.01,meteohub,2013-09-21 18:07:00,
2013-09-21 08:12:00,78.4,74.3,29.00,South,180,0.0,1.0,87,0.01,,,0.01,meteohub,2013-09-21 18:12:00,
2013-09-21 08:17:00,79.3,73.8,29.00,South,180,0.0,1.0,83,0.01,,,0.01,meteohub,2013-09-21 18:17:00,
2013-09-21 08:22:00,79.5,71.6,29.00,South,180,0.0,3.0,77,0.01,,,0.01,meteohub,2013-09-21 18:22:00,
2013-09-21 08:27:00,80.8,70.5,29.01,South,180,3.0,3.0,71,0.01,,,0.01,meteohub,2013-09-21 18:27:00,
2013-09-21 08:32:00,80.6,70.7,29.01,South,180,2.0,5.0,72,0.01,,,0.01,meteohub,2013-09-21 18:32:00,
2013-09-21 08:37:00,80.8,70.5,29.00,South,180,2.0,5.0,71,0.01,,,0.01,meteohub,2013-09-21 18:37:00,
2013-09-21 08:42:00,81.0,69.8,29.00,South,180,2.0,5.0,69,0.01,,,0.01,meteohub,2013-09-21 18:42:00,
2013-09-21 08:47:00,80.8,68.7,29.01,South,180,2.0,3.0,67,0.00,,,0.01,meteohub,2013-09-21 18:47:00,
2013-09-21 08:52:00,81.3,69.3,29.01,South,180,0.0,2.0,67,0.00,,,0.01,meteohub,2013-09-21 18:52:00,
2013-09-21 08:57:00,82.2,69.3,29.01,South,180,2.0,2.0,65,0.00,,,0.01,meteohub,2013-09-21 18:57:00,
2013-09-21 09:02:00,82.8,70.2,29.01,South,180,2.0,2.0,66,0.00,,,0.01,meteohub,2013-09-21 19:02:00,
2013-09-21 09:06:00,84.0,71.1,29.01,South,180,2.0,2.0,65,0.00,,,0.01,meteohub,2013-09-21 19:06:00,
2013-09-21 09:12:00,84.4,70.9,29.00,South,180,2.0,2.0,64,0.00,,,0.01,meteohub,2013-09-21 19:12:00,
2013-09-21 09:17:00,84.6,70.5,29.00,South,180,4.0,4.0,63,0.00,,,0.01,meteohub,2013-09-21 19:17:00,
2013-09-21 09:22:00,82.2,69.3,28.99,South,180,2.0,4.0,65,0.00,,,0.01,meteohub,2013-09-21 19:22:00,
2013-09-21 09:27:00,80.6,68.5,29.00,South,180,0.0,4.0,67,0.00,,,0.01,meteohub,2013-09-21 19:27:00,
2013-09-21 09:32:00,79.7,68.5,28.99,South,180,0.0,4.0,69,0.00,,,0.01,meteohub,2013-09-21 19:32:00,
2013-09-21 09:37:00,79.9,69.3,28.99,South,180,3.0,4.0,70,0.00,,,0.01,meteohub,2013-09-21 19:37:00,
2013-09-21 09:42:00,80.6,69.4,28.98,South,180,2.0,4.0,69,0.00,,,0.01,meteohub,2013-09-21 19:42:00,
2013-09-21 09:47:00,81.1,69.6,28.98,South,180,3.0,4.0,68,0.00,,,0.01,meteohub,2013-09-21 19:47:00,
2013-09-21 09:52:00,81.0,69.8,28.97,South,180,2.0,4.0,69,0.00,,,0.01,meteohub,2013-09-21 19:52:00,
2013-09-21 09:57:00,80.2,70.0,28.98,South,180,3.0,5.0,71,0.00,,,0.01,meteohub,2013-09-21 19:57:00,
2013-09-21 10:02:00,80.4,70.5,28.97,South,180,2.0,5.0,72,0.00,,,0.01,meteohub,2013-09-21 20:02:00,
2013-09-21 10:07:00,79.7,69.8,28.97,South,180,2.0,6.0,72,0.00,,,0.01,meteohub,2013-09-21 20:07:00,
2013-09-21 10:12:00,79.7,70.3,28.97,South,180,1.0,6.0,73,0.00,,,0.01,meteohub,2013-09-21 20:12:00,
2013-09-21 10:17:00,81.0,70.7,28.97,South,180,4.0,6.0,71,0.00,,,0.01,meteohub,2013-09-21 20:17:00,
2013-09-21 10:22:00,80.6,70.0,28.96,South,180,3.0,4.0,70,0.00,,,0.01,meteohub,2013-09-21 20:22:00,
2013-09-21 10:27:00,80.2,70.0,28.97,South,180,2.0,4.0,71,0.00,,,0.01,meteohub,2013-09-21 20:27:00,
2013-09-21 10:32:00,79.5,69.3,28.97,South,180,3.0,4.0,71,0.00,,,0.01,meteohub,2013-09-21 20:32:00,
2013-09-21 10:37:00,79.0,70.0,28.97,South,180,4.0,4.0,74,0.00,,,0.01,meteohub,2013-09-21 20:37:00,
2013-09-21 10:42:00,78.1,69.1,28.97,South,180,2.0,4.0,74,0.00,,,0.01,meteohub,2013-09-21 20:42:00,
2013-09-21 10:47:00,77.5,69.4,28.97,South,180,2.0,4.0,76,0.00,,,0.01,meteohub,2013-09-21 20:47:00,
2013-09-21 10:52:00,76.8,69.4,28.98,South,180,2.0,4.0,78,0.00,,,0.01,meteohub,2013-09-21 20:52:00,
2013-09-21 10:57:00,76.6,70.0,28.98,South,180,4.0,5.0,80,0.00,,,0.01,meteohub,2013-09-21 20:57:00,
2013-09-21 11:02:00,76.5,69.4,28.98,South,180,3.0,5.0,79,0.00,,,0.01,meteohub,2013-09-21 21:02:00,
2013-09-21 11:07:00,76.6,70.0,28.98,South,180,2.0,5.0,80,0.00,,,0.01,meteohub,2013-09-21 21:07:00,
2013-09-21 11:12:00,76.6,69.6,28.98,South,180,4.0,4.0,79,0.00,,,0.01,meteohub,2013-09-21 21:12:00,
2013-09-21 11:17:00,76.6,69.6,28.98,South,180,4.0,4.0,79,0.00,,,0.01,meteohub,2013-09-21 21:17:00,
2013-09-21 11:22:00,76.5,69.8,28.98,South,180,3.0,4.0,80,0.00,,,0.01,meteohub,2013-09-21 21:22:00,
2013-09-21 11:27:00,76.8,70.2,28.98,South,180,2.0,6.0,80,0.00,,,0.01,meteohub,2013-09-21 21:27:00,
2013-09-21 11:32:00,76.6,69.6,28.98,South,180,2.0,6.0,79,0.00,,,0.01,meteohub,2013-09-21 21:32:00,
2013-09-21 11:37:00,77.0,69.6,28.97,South,180,3.0,3.0,78,0.00,,,0.01,meteohub,2013-09-21 21:37:00,
2013-09-21 11:42:00,77.0,68.9,28.97,South,180,2.0,4.0,76,0.00,,,0.01,meteohub,2013-09-21 21:42:00,
2013-09-21 11:47:00,77.2,69.1,28.97,South,180,2.0,4.0,76,0.00,,,0.01,meteohub,2013-09-21 21:47:00,
2013-09-21 11:52:00,78.8,69.8,28.97,South,180,2.0,4.0,74,0.00,,,0.01,meteohub,2013-09-21 21:52:00,
2013-09-21 11:57:00,79.2,68.5,28.96,South,180,3.0,5.0,70,0.00,,,0.01,meteohub,2013-09-21 21:57:00,
2013-09-21 12:02:00,79.3,68.7,28.96,South,180,2.0,5.0,70,0.00,,,0.01,meteohub,2013-09-21 22:02:00,
2013-09-21 12:07:00,79.0,68.4,28.96,South,180,2.0,4.0,70,0.00,,,0.01,meteohub,2013-09-21 22:07:00,
2013-09-21 12:12:00,79.0,68.7,28.95,South,180,2.0,6.0,71,0.00,,,0.01,meteohub,2013-09-21 22:12:00,
2013-09-21 12:17:00,79.0,68.7,28.95,South,180,2.0,6.0,71,0.00,,,0.01,meteohub,2013-09-21 22:17:00,
2013-09-21 12:22:00,79.2,69.3,28.95,South,180,2.0,5.0,72,0.00,,,0.01,meteohub,2013-09-21 22:22:00,
2013-09-21 12:27:00,79.0,68.7,28.95,South,180,4.0,5.0,71,0.00,,,0.01,meteohub,2013-09-21 22:27:00,
2013-09-21 12:32:00,78.8,69.1,28.95,South,180,0.0,4.0,72,0.00,,,0.01,meteohub,2013-09-21 22:32:00,
2013-09-21 12:37:00,79.2,68.9,28.95,South,180,1.0,4.0,71,0.00,,,0.01,meteohub,2013-09-21 22:37:00,
2013-09-21 12:42:00,79.7,69.1,28.95,South,180,2.0,4.0,70,0.00,,,0.01,meteohub,2013-09-21 22:42:00,
2013-09-21 12:47:00,80.1,69.8,28.94,South,180,2.0,4.0,71,0.00,,,0.01,meteohub,2013-09-21 22:47:00,
2013-09-21 12:52:00,79.7,69.8,28.94,South,180,2.0,6.0,72,0.00,,,0.01,meteohub,2013-09-21 22:52:00,
2013-09-21 12:57:00,79.2,69.8,28.95,South,180,6.0,6.0,73,0.00,,,0.01,meteohub,2013-09-21 22:57:00,
2013-09-21 13:02:00,79.0,70.0,28.95,South,180,4.0,6.0,74,0.00,,,0.01,meteohub,2013-09-21 23:02:00,
2013-09-21 13:07:00,78.8,70.2,28.94,South,180,3.0,6.0,75,0.00,,,0.01,meteohub,2013-09-21 23:07:00,
2013-09-21 13:12:00,78.3,70.0,28.94,South,180,5.0,6.0,76,0.00,,,0.01,meteohub,2013-09-21 23:12:00,
2013-09-21 13:17:00,78.1,70.3,28.94,South,180,2.0,8.0,77,0.00,,,0.01,meteohub,2013-09-21 23:17:00,
2013-09-21 13:22:00,77.7,70.0,28.94,South,180,2.0,8.0,77,0.00,,,0.01,meteohub,2013-09-21 23:22:00,
2013-09-21 13:27:00,77.4,69.3,28.94,South,180,2.0,8.0,76,0.00,,,0.01,meteohub,2013-09-21 23:27:00,
2013-09-21 13:32:00,77.2,69.4,28.94,South,180,6.0,6.0,77,0.00,,,0.01,meteohub,2013-09-21 23:32:00,
2013-09-21 13:37:00,77.4,69.3,28.94,South,180,4.0,6.0,76,0.00,,,0.01,meteohub,2013-09-21 23:37:00,
2013-09-21 13:42:00,77.2,69.1,28.93,South,180,2.0,6.0,76,0.00,,,0.01,meteohub,2013-09-21 23:42:00,
2013-09-21 13:47:00,77.0,69.3,28.93,South,180,5.0,6.0,77,0.00,,,0.01,meteohub,2013-09-21 23:47:00,
2013-09-21 13:51:00,76.6,69.6,28.93,South,180,3.0,5.0,79,0.00,,,0.01,meteohub,2013-09-21 23:51:00,
2013-09-21 13:57:00,76.8,69.4,28.93,South,180,4.0,6.0,78,0.00,,,0.01,meteohub,2013-09-21 23:57:00,
2013-09-21 14:02:00,77.0,69.3,28.93,South,180,3.0,6.0,77,0.00,,,0.01,meteohub,2013-09-22 00:02:00,
2013-09-21 14:07:00,76.8,69.4,28.92,South,180,2.0,4.0,78,0.00,,,0.01,meteohub,2013-09-22 00:07:00,
2013-09-21 14:12:00,76.6,68.9,28.93,South,180,3.0,4.0,77,0.00,,,0.01,meteohub,2013-09-22 00:12:00,
2013-09-21 14:17:00,76.5,68.7,28.92,South,180,4.0,4.0,77,0.00,,,0.01,meteohub,2013-09-22 00:17:00,
2013-09-21 14:22:00,76.1,69.1,28.92,South,180,3.0,4.0,79,0.00,,,0.01,meteohub,2013-09-22 00:22:00,
2013-09-21 14:27:00,76.3,69.3,28.92,South,180,3.0,4.0,79,0.00,,,0.01,meteohub,2013-09-22 00:27:00,
2013-09-21 14:32:00,76.3,68.9,28.92,South,180,2.0,4.0,78,0.00,,,0.01,meteohub,2013-09-22 00:32:00,
2013-09-21 14:37:00,76.5,69.4,28.92,South,180,2.0,4.0,79,0.00,,,0.01,meteohub,2013-09-22 00:37:00,
2013-09-21 14:42:00,76.5,69.4,28.92,South,180,1.0,4.0,79,0.00,,,0.01,meteohub,2013-09-22 00:42:00,
2013-09-21 14:47:00,76.5,69.4,28.92,South,180,2.0,4.0,79,0.00,,,0.01,meteohub,2013-09-22 00:47:00,
2013-09-21 14:52:00,76.3,68.5,28.92,South,180,4.0,4.0,77,0.00,,,0.01,meteohub,2013-09-22 00:52:00,
2013-09-21 14:57:00,75.9,68.5,28.92,South,180,3.0,5.0,78,0.00,,,0.01,meteohub,2013-09-22 00:57:00,
2013-09-21 15:02:00,75.9,68.5,28.92,South,180,2.0,5.0,78,0.00,,,0.01,meteohub,2013-09-22 01:02:00,
2013-09-21 15:07:00,76.1,68.4,28.92,South,180,1.0,5.0,77,0.00,,,0.01,meteohub,2013-09-22 01:07:00,
2013-09-21 15:12:00,76.1,68.4,28.92,South,180,2.0,4.0,77,0.00,,,0.01,meteohub,2013-09-22 01:12:00,
2013-09-21 15:17:00,75.9,67.8,28.92,South,180,2.0,3.0,76,0.00,,,0.01,meteohub,2013-09-22 01:17:00,
2013-09-21 15:22:00,75.7,68.4,28.92,South,180,2.0,3.0,78,0.00,,,0.01,meteohub,2013-09-22 01:22:00,
2013-09-21 15:27:00,75.7,68.4,28.92,South,180,2.0,3.0,78,0.00,,,0.01,meteohub,2013-09-22 01:27:00,
2013-09-21 15:32:00,75.7,68.4,28.92,South,180,2.0,3.0,78,0.00,,,0.01,meteohub,2013-09-22 01:32:00,
2013-09-21 15:37:00,75.4,68.4,28.92,South,180,2.0,2.0,79,0.00,,,0.01,meteohub,2013-09-22 01:37:00,
2013-09-21 15:42:00,75.2,68.5,28.93,South,180,2.0,2.0,80,0.00,,,0.01,meteohub,2013-09-22 01:42:00,
2013-09-21 15:47:00,75.0,68.0,28.93,South,180,2.0,2.0,79,0.00,,,0.01,meteohub,2013-09-22 01:47:00,
2013-09-21 15:52:00,74.7,68.4,28.93,South,180,1.0,3.0,81,0.00,,,0.01,meteohub,2013-09-22 01:52:00,
2013-09-21 15:57:00,74.7,68.4,28.93,South,180,1.0,3.0,81,0.00,,,0.01,meteohub,2013-09-22 01:57:00,
2013-09-21 16:02:00,74.7,68.7,28.93,South,180,2.0,3.0,82,0.00,,,0.01,meteohub,2013-09-22 02:02:00,
2013-09-21 16:07:00,74.5,68.5,28.94,South,180,0.0,2.0,82,0.00,,,0.01,meteohub,2013-09-22 02:07:00,
2013-09-21 16:12:00,74.7,69.1,28.93,South,180,3.0,3.0,83,0.00,,,0.01,meteohub,2013-09-22 02:12:00,
2013-09-21 16:17:00,74.5,68.9,28.93,South,180,1.0,4.0,83,0.00,,,0.01,meteohub,2013-09-22 02:17:00,
2013-09-21 16:22:00,74.3,68.7,28.93,South,180,1.0,4.0,83,0.00,,,0.01,meteohub,2013-09-22 02:22:00,
2013-09-21 16:27:00,74.3,69.1,28.93,South,180,1.0,4.0,84,0.00,,,0.01,meteohub,2013-09-22 02:27:00,
2013-09-21 16:32:00,74.3,69.1,28.93,South,180,2.0,2.0,84,0.00,,,0.01,meteohub,2013-09-22 02:32:00,
2013-09-21 16:37:00,74.3,69.4,28.93,South,180,2.0,3.0,85,0.00,,,0.01,meteohub,2013-09-22 02:37:00,
2013-09-21 16:42:00,74.3,69.4,28.93,South,180,2.0,3.0,85,0.00,,,0.01,meteohub,2013-09-22 02:42:00,
2013-09-21 16:47:00,74.1,69.6,28.93,South,180,2.0,3.0,86,0.00,,,0.01,meteohub,2013-09-22 02:47:00,
2013-09-21 16:52:00,73.9,69.1,28.93,South,180,2.0,3.0,85,0.00,,,0.01,meteohub,2013-09-22 02:52:00,
2013-09-21 16:57:00,73.9,69.1,28.93,South,180,0.0,3.0,85,0.00,,,0.01,meteohub,2013-09-22 02:57:00,
2013-09-21 17:02:00,73.8,68.9,28.94,South,180,2.0,3.0,85,0.00,,,0.01,meteohub,2013-09-22 03:02:00,
2013-09-21 17:07:00,73.8,69.3,28.94,South,180,1.0,2.0,86,0.00,,,0.01,meteohub,2013-09-22 03:07:00,
2013-09-21 17:12:00,73.6,69.1,28.93,South,180,0.0,2.0,86,0.00,,,0.01,meteohub,2013-09-22 03:12:00,
2013-09-21 17:17:00,73.6,69.4,28.93,South,180,2.0,2.0,87,0.00,,,0.01,meteohub,2013-09-22 03:17:00,
2013-09-21 17:22:00,73.4,69.3,28.93,South,180,0.0,2.0,87,0.00,,,0.01,meteohub,2013-09-22 03:22:00,
2013-09-21 17:27:00,73.4,69.3,28.93,South,180,0.0,2.0,87,0.00,,,0.01,meteohub,2013-09-22 03:27:00,
2013-09-21 17:32:00,73.2,69.4,28.93,South,180,0.0,2.0,88,0.00,,,0.01,meteohub,2013-09-22 03:32:00,
2013-09-21 17:37:00,73.2,69.4,28.94,South,180,1.0,2.0,88,0.00,,,0.01,meteohub,2013-09-22 03:37:00,
2013-09-21 17:42:00,73.0,69.3,28.94,South,180,2.0,2.0,88,0.00,,,0.01,meteohub,2013-09-22 03:42:00,
2013-09-21 17:47:00,72.9,69.1,28.95,South,180,0.0,2.0,88,0.00,,,0.01,meteohub,2013-09-22 03:47:00,
2013-09-21 17:52:00,72.7,69.3,28.95,South,180,0.0,2.0,89,0.00,,,0.01,meteohub,2013-09-22 03:52:00,
2013-09-21 17:57:00,72.7,69.6,28.94,South,180,1.0,2.0,90,0.00,,,0.01,meteohub,2013-09-22 03:57:00,
2013-09-21 18:01:00,72.7,69.6,28.95,South,180,0.0,2.0,90,0.00,,,0.01,meteohub,2013-09-22 04:01:00,
2013-09-21 18:02:00,72.7,69.6,28.95,South,180,0.0,2.0,90,0.00,,,0.01,meteohub,2013-09-22 04:02:00,
2013-09-21 18:07:00,72.5,69.4,28.95,South,180,0.0,2.0,90,0.00,,,0.01,meteohub,2013-09-22 04:07:00,
2013-09-21 18:12:00,72.3,69.6,28.95,South,180,0.0,2.0,91,0.00,,,0.01,meteohub,2013-09-22 04:12:00,
2013-09-21 18:17:00,72.3,69.6,28.95,South,180,0.0,1.0,91,0.00,,,0.01,meteohub,2013-09-22 04:17:00,
2013-09-21 18:22:00,72.3,69.6,28.95,South,180,0.0,1.0,91,0.00,,,0.01,meteohub,2013-09-22 04:22:00,
2013-09-21 18:27:00,72.1,69.6,28.95,South,180,0.0,0.0,92,0.00,,,0.01,meteohub,2013-09-22 04:27:00,
2013-09-21 18:32:00,72.1,69.6,28.95,South,180,0.0,0.0,92,0.00,,,0.01,meteohub,2013-09-22 04:32:00,
2013-09-21 18:37:00,72.0,69.8,28.95,South,180,0.0,0.0,93,0.00,,,0.01,meteohub,2013-09-22 04:37:00,
2013-09-21 18:42:00,71.8,70.0,28.95,South,180,0.0,0.0,94,0.00,,,0.01,meteohub,2013-09-22 04:42:00,
2013-09-21 18:47:00,71.8,70.3,28.95,South,180,0.0,0.0,95,0.00,,,0.01,meteohub,2013-09-22 04:47:00,
2013-09-21 18:52:00,71.6,70.3,28.96,South,180,0.0,0.0,96,0.00,,,0.01,meteohub,2013-09-22 04:52:00,
2013-09-21 18:57:00,71.6,70.3,28.95,South,180,0.0,0.0,96,0.00,,,0.01,meteohub,2013-09-22 04:57:00,
2013-09-21 19:02:00,71.4,70.2,28.95,South,180,0.0,0.0,96,0.00,,,0.01,meteohub,2013-09-22 05:02:00,
2013-09-21 19:07:00,71.4,70.5,28.96,South,180,0.0,0.0,97,0.00,,,0.01,meteohub,2013-09-22 05:07:00,
2013-09-21 19:12:00,71.2,70.3,28.96,South,180,0.0,0.0,97,0.00,,,0.01,meteohub,2013-09-22 05:12:00,
2013-09-21 19:17:00,71.2,70.3,28.96,South,180,0.0,0.0,97,0.00,,,0.01,meteohub,2013-09-22 05:17:00,
2013-09-21 19:22:00,71.2,70.3,28.97,South,180,0.0,0.0,97,0.00,,,0.01,meteohub,2013-09-22 05:22:00,
2013-09-21 19:27:00,71.2,70.3,28.97,South,180,0.0,0.0,97,0.00,,,0.01,meteohub,2013-09-22 05:27:00,
2013-09-21 19:32:00,71.1,70.5,28.97,South,180,0.0,0.0,98,0.00,,,0.01,meteohub,2013-09-22 05:32:00,
2013-09-21 19:37:00,71.1,70.5,28.97,South,180,0.0,0.0,98,0.00,,,0.01,meteohub,2013-09-22 05:37:00,
2013-09-21 19:42:00,71.1,70.5,28.97,South,180,0.0,0.0,98,0.00,,,0.01,meteohub,2013-09-22 05:42:00,
2013-09-21 19:47:00,71.1,70.7,28.97,South,180,0.0,0.0,99,0.00,,,0.01,meteohub,2013-09-22 05:47:00,
2013-09-21 19:52:00,71.1,70.7,28.97,South,180,0.0,0.0,99,0.00,,,0.01,meteohub,2013-09-22 05:52:00,
2013-09-21 19:57:00,71.1,70.7,28.97,South,180,0.0,0.0,99,0.00,,,0.01,meteohub,2013-09-22 05:57:00,
2013-09-21 20:02:00,70.9,70.5,28.98,South,180,0.0,0.0,99,0.00,,,0.01,meteohub,2013-09-22 06:02:00,
2013-09-21 20:07:00,70.9,70.5,28.98,South,180,0.0,0.0,99,0.00,,,0.01,meteohub,2013-09-22 06:07:00,
2013-09-21 20:12:00,70.9,70.3,28.98,South,180,0.0,0.0,98,0.00,,,0.01,meteohub,2013-09-22 06:12:00,
2013-09-21 20:17:00,70.7,70.2,28.98,South,180,0.0,0.0,98,0.00,,,0.01,meteohub,2013-09-22 06:17:00,
2013-09-21 20:22:00,70.7,70.2,28.99,South,180,0.0,0.0,98,0.00,,,0.01,meteohub,2013-09-22 06:22:00,
2013-09-21 20:27:00,70.5,70.0,28.99,South,180,0.0,0.0,98,0.00,,,0.01,meteohub,2013-09-22 06:27:00,
2013-09-21 20:33:00,70.3,69.8,28.99,South,180,0.0,0.0,98,0.00,,,0.01,meteohub,2013-09-22 06:33:00,
2013-09-21 20:38:00,70.2,69.6,28.99,South,180,0.0,0.0,98,0.00,,,0.01,meteohub,2013-09-22 06:38:00,
2013-09-21 20:43:00,70.0,69.6,28.99,South,180,0.0,0.0,99,0.00,,,0.01,meteohub,2013-09-22 06:43:00,
2013-09-21 20:48:00,69.8,69.4,29.00,South,180,0.0,1.0,99,0.00,,,0.01,meteohub,2013-09-22 06:48:00,
2013-09-21 20:53:00,69.8,69.4,29.00,South,180,0.0,1.0,99,0.00,,,0.01,meteohub,2013-09-22 06:53:00,
2013-09-21 20:58:00,69.6,69.1,29.00,South,180,0.0,1.0,98,0.00,,,0.01,meteohub,2013-09-22 06:58:00,
2013-09-21 21:03:00,69.6,69.3,29.00,South,180,0.0,1.0,99,0.00,,,0.01,meteohub,2013-09-22 07:03:00,
2013-09-21 21:08:00,69.6,69.3,29.00,South,180,0.0,0.0,99,0.00,,,0.01,meteohub,2013-09-22 07:08:00,
2013-09-21 21:13:00,69.6,69.3,29.01,South,180,0.0,0.0,99,0.00,,,0.01,meteohub,2013-09-22 07:13:00,
2013-09-21 21:18:00,69.6,69.1,29.01,South,180,0.0,0.0,98,0.00,,,0.01,meteohub,2013-09-22 07:18:00,
2013-09-21 21:23:00,69.6,69.1,29.01,South,180,0.0,0.0,98,0.00,,,0.01,meteohub,2013-09-22 07:23:00,
2013-09-21 21:28:00,69.6,69.1,29.01,South,180,0.0,0.0,98,0.00,,,0.01,meteohub,2013-09-22 07:28:00,
2013-09-21 21:33:00,69.8,69.3,29.01,South,180,0.0,0.0,98,0.00,,,0.01,meteohub,2013-09-22 07:33:00,
2013-09-21 21:38:00,69.8,68.9,29.01,South,180,0.0,0.0,97,0.00,,,0.01,meteohub,2013-09-22 07:38:00,
2013-09-21 21:43:00,70.0,69.1,29.01,South,180,0.0,0.0,97,0.00,,,0.01,meteohub,2013-09-22 07:43:00,
2013-09-21 21:48:00,70.0,68.7,29.01,South,180,0.0,0.0,96,0.00,,,0.01,meteohub,2013-09-22 07:48:00,
2013-09-21 21:53:00,70.2,68.7,29.02,South,180,0.0,0.0,95,0.00,,,0.01,meteohub,2013-09-22 07:53:00,
2013-09-21 21:58:00,70.3,68.2,29.01,South,180,0.0,0.0,93,0.00,,,0.01,meteohub,2013-09-22 07:58:00,
2013-09-21 22:03:00,70.5,68.4,29.02,South,180,0.0,0.0,93,0.00,,,0.01,meteohub,2013-09-22 08:03:00,
2013-09-21 22:08:00,70.5,68.4,29.02,South,180,0.0,0.0,93,0.00,,,0.01,meteohub,2013-09-22 08:08:00,
2013-09-21 22:13:00,70.5,68.0,29.02,South,180,0.0,0.0,92,0.00,,,0.01,meteohub,2013-09-22 08:13:00,
2013-09-21 22:18:00,70.5,67.8,29.02,South,180,0.0,0.0,91,0.00,,,0.01,meteohub,2013-09-22 08:18:00,
2013-09-21 22:23:00,70.5,67.8,29.02,South,180,0.0,0.0,91,0.00,,,0.01,meteohub,2013-09-22 08:23:00,
2013-09-21 22:28:00,70.5,67.5,29.02,South,180,0.0,0.0,90,0.00,,,0.01,meteohub,2013-09-22 08:28:00,
2013-09-21 22:33:00,70.5,67.5,29.02,South,180,0.0,0.0,90,0.00,,,0.01,meteohub,2013-09-22 08:33:00,
2013-09-21 22:38:00,70.3,67.3,29.02,South,180,0.0,0.0,90,0.00,,,0.01,meteohub,2013-09-22 08:38:00,
2013-09-21 22:43:00,70.2,67.1,29.01,South,180,0.0,0.0,90,0.00,,,0.01,meteohub,2013-09-22 08:43:00,
2013-09-21 22:48:00,70.2,67.1,29.02,South,180,0.0,0.0,90,0.00,,,0.01,meteohub,2013-09-22 08:48:00,
2013-09-21 22:53:00,70.0,66.9,29.01,South,180,0.0,0.0,90,0.00,,,0.01,meteohub,2013-09-22 08:53:00,
2013-09-21 22:58:00,69.8,66.7,29.01,South,180,0.0,0.0,90,0.00,,,0.01,meteohub,2013-09-22 08:58:00,
2013-09-21 23:04:00,69.6,66.9,29.01,South,180,0.0,0.0,91,0.00,,,0.01,meteohub,2013-09-22 09:04:00,
2013-09-21 23:09:00,69.4,66.7,29.01,South,180,0.0,0.0,91,0.00,,,0.01,meteohub,2013-09-22 09:09:00,
2013-09-21 23:14:00,69.3,66.9,29.01,South,180,0.0,0.0,92,0.00,,,0.01,meteohub,2013-09-22 09:14:00,
2013-09-21 23:19:00,69.3,66.9,29.01,South,180,0.0,0.0,92,0.00,,,0.01,meteohub,2013-09-22 09:19:00,
2013-09-21 23:24:00,69.3,66.9,29.00,South,180,0.0,0.0,92,0.00,,,0.01,meteohub,2013-09-22 09:24:00,
2013-09-21 23:29:00,69.1,66.7,29.01,South,180,0.0,1.0,92,0.00,,,0.01,meteohub,2013-09-22 09:29:00,
2013-09-21 23:34:00,69.1,66.7,29.00,South,180,0.0,1.0,92,0.00,,,0.01,meteohub,2013-09-22 09:34:00,
2013-09-21 23:39:00,68.9,66.6,29.01,South,180,0.0,1.0,92,0.00,,,0.01,meteohub,2013-09-22 09:39:00,
2013-09-21 23:44:00,68.9,66.6,29.00,South,180,0.0,2.0,92,0.00,,,0.01,meteohub,2013-09-22 09:44:00,
2013-09-21 23:49:00,68.9,66.7,29.01,South,180,0.0,2.0,93,0.00,,,0.01,meteohub,2013-09-22 09:49:00,
2013-09-21 23:54:00,68.9,66.7,29.01,South,180,0.0,2.0,93,0.00,,,0.01,meteohub,2013-09-22 09:54:00,
2013-09-21 23:59:00,68.7,66.6,29.01,South,180,0.0,0.0,93,0.00,,,0.01,meteohub,2013-09-22 09:59:00,